sensor_id;sensor_type;location;lat;lon;timestamp;P1;durP1;ratioP1;P2;durP2;ratioP2
42514;SDS011;28144;49.920;18.730;2024-02-26T00:01:26;24.05;;;10.98;;
42514;SDS011;28144;49.920;18.730;2024-02-26T00:03:57;25.60;;;10.90;;
42514;SDS011;28144;49.920;18.730;2024-02-26T00:06:25;25.43;;;12.50;;
42514;SDS011;28144;49.920;18.730;2024-02-26T00:08:50;32.53;;;14.60;;
42514;SDS011;28144;49.920;18.730;2024-02-26T00:11:16;44.00;;;15.57;;
42514;SDS011;28144;49.920;18.730;2024-02-26T00:13:42;85.70;;;26.20;;
42514;SDS011;28144;49.920;18.730;2024-02-26T00:16:08;64.03;;;22.60;;
42514;SDS011;28144;49.920;18.730;2024-02-26T00:18:33;129.63;;;34.20;;
42514;SDS011;28144;49.920;18.730;2024-02-26T00:20:59;88.70;;;25.10;;
42514;SDS011;28144;49.920;18.730;2024-02-26T00:23:25;42.42;;;16.40;;
42514;SDS011;28144;49.920;18.730;2024-02-26T00:25:53;32.33;;;13.90;;
42514;SDS011;28144;49.920;18.730;2024-02-26T00:28:18;27.93;;;13.27;;
42514;SDS011;28144;49.920;18.730;2024-02-26T00:30:45;27.70;;;12.93;;
42514;SDS011;28144;49.920;18.730;2024-02-26T00:33:11;43.75;;;19.33;;
42514;SDS011;28144;49.920;18.730;2024-02-26T00:35:37;33.27;;;13.40;;
42514;SDS011;28144;49.920;18.730;2024-02-26T00:38:03;27.87;;;13.33;;
42514;SDS011;28144;49.920;18.730;2024-02-26T00:40:29;32.67;;;13.15;;
42514;SDS011;28144;49.920;18.730;2024-02-26T00:42:55;22.93;;;11.47;;
42514;SDS011;28144;49.920;18.730;2024-02-26T00:45:21;29.10;;;12.17;;
42514;SDS011;28144;49.920;18.730;2024-02-26T00:47:47;26.55;;;11.75;;
42514;SDS011;28144;49.920;18.730;2024-02-26T00:50:14;26.92;;;12.15;;
42514;SDS011;28144;49.920;18.730;2024-02-26T00:52:40;22.77;;;11.60;;
42514;SDS011;28144;49.920;18.730;2024-02-26T00:55:06;28.67;;;11.93;;
42514;SDS011;28144;49.920;18.730;2024-02-26T00:57:32;27.35;;;12.82;;
42514;SDS011;28144;49.920;18.730;2024-02-26T00:59:58;34.30;;;12.38;;
42514;SDS011;28144;49.920;18.730;2024-02-26T01:02:24;40.85;;;15.10;;
42514;SDS011;28144;49.920;18.730;2024-02-26T01:04:50;26.23;;;12.38;;
42514;SDS011;28144;49.920;18.730;2024-02-26T01:07:16;36.27;;;14.80;;
42514;SDS011;28144;49.920;18.730;2024-02-26T01:09:42;38.77;;;15.03;;
42514;SDS011;28144;49.920;18.730;2024-02-26T01:12:08;34.10;;;14.88;;
42514;SDS011;28144;49.920;18.730;2024-02-26T01:14:34;31.57;;;14.33;;
42514;SDS011;28144;49.920;18.730;2024-02-26T01:16:59;33.27;;;14.20;;
42514;SDS011;28144;49.920;18.730;2024-02-26T01:19:25;29.40;;;12.97;;
42514;SDS011;28144;49.920;18.730;2024-02-26T01:21:51;28.87;;;13.63;;
42514;SDS011;28144;49.920;18.730;2024-02-26T01:24:17;26.57;;;11.70;;
42514;SDS011;28144;49.920;18.730;2024-02-26T01:26:43;30.33;;;12.63;;
42514;SDS011;28144;49.920;18.730;2024-02-26T01:29:08;40.23;;;15.17;;
42514;SDS011;28144;49.920;18.730;2024-02-26T01:31:34;40.93;;;14.60;;
42514;SDS011;28144;49.920;18.730;2024-02-26T01:34:00;36.97;;;15.60;;
42514;SDS011;28144;49.920;18.730;2024-02-26T01:36:26;29.77;;;12.82;;
42514;SDS011;28144;49.920;18.730;2024-02-26T01:38:52;26.70;;;12.10;;
42514;SDS011;28144;49.920;18.730;2024-02-26T01:41:18;30.10;;;13.67;;
42514;SDS011;28144;49.920;18.730;2024-02-26T01:43:44;27.57;;;12.47;;
42514;SDS011;28144;49.920;18.730;2024-02-26T01:46:11;31.37;;;13.40;;
42514;SDS011;28144;49.920;18.730;2024-02-26T01:48:40;34.83;;;13.20;;
42514;SDS011;28144;49.920;18.730;2024-02-26T01:51:06;28.47;;;12.27;;
42514;SDS011;28144;49.920;18.730;2024-02-26T01:53:33;24.08;;;11.13;;
42514;SDS011;28144;49.920;18.730;2024-02-26T01:55:58;28.83;;;12.77;;
42514;SDS011;28144;49.920;18.730;2024-02-26T01:58:25;32.28;;;18.35;;
42514;SDS011;28144;49.920;18.730;2024-02-26T02:00:50;33.13;;;15.90;;
42514;SDS011;28144;49.920;18.730;2024-02-26T02:03:16;23.83;;;11.30;;
42514;SDS011;28144;49.920;18.730;2024-02-26T02:05:42;23.77;;;12.27;;
42514;SDS011;28144;49.920;18.730;2024-02-26T02:08:09;31.63;;;14.55;;
42514;SDS011;28144;49.920;18.730;2024-02-26T02:10:36;32.10;;;15.87;;
42514;SDS011;28144;49.920;18.730;2024-02-26T02:13:03;29.40;;;12.83;;
42514;SDS011;28144;49.920;18.730;2024-02-26T02:15:29;23.33;;;11.43;;
42514;SDS011;28144;49.920;18.730;2024-02-26T02:17:55;23.27;;;11.53;;
42514;SDS011;28144;49.920;18.730;2024-02-26T02:20:24;28.00;;;12.57;;
42514;SDS011;28144;49.920;18.730;2024-02-26T02:22:53;25.00;;;12.70;;
42514;SDS011;28144;49.920;18.730;2024-02-26T02:31:57;29.67;;;12.87;;
42514;SDS011;28144;49.920;18.730;2024-02-26T02:34:24;26.35;;;12.38;;
42514;SDS011;28144;49.920;18.730;2024-02-26T02:36:54;34.40;;;12.57;;
42514;SDS011;28144;49.920;18.730;2024-02-26T02:39:20;36.63;;;15.00;;
42514;SDS011;28144;49.920;18.730;2024-02-26T02:41:46;33.85;;;14.90;;
42514;SDS011;28144;49.920;18.730;2024-02-26T02:44:12;32.63;;;14.70;;
42514;SDS011;28144;49.920;18.730;2024-02-26T02:46:38;28.97;;;14.27;;
42514;SDS011;28144;49.920;18.730;2024-02-26T02:49:07;28.42;;;12.77;;
42514;SDS011;28144;49.920;18.730;2024-02-26T02:51:34;24.47;;;11.80;;
42514;SDS011;28144;49.920;18.730;2024-02-26T02:54:00;24.07;;;12.20;;
42514;SDS011;28144;49.920;18.730;2024-02-26T02:56:26;27.30;;;11.82;;
42514;SDS011;28144;49.920;18.730;2024-02-26T02:58:52;25.37;;;11.47;;
42514;SDS011;28144;49.920;18.730;2024-02-26T03:01:18;19.87;;;11.00;;
42514;SDS011;28144;49.920;18.730;2024-02-26T03:03:43;27.60;;;11.93;;
42514;SDS011;28144;49.920;18.730;2024-02-26T03:06:09;25.02;;;11.80;;
42514;SDS011;28144;49.920;18.730;2024-02-26T03:08:35;23.27;;;10.43;;
42514;SDS011;28144;49.920;18.730;2024-02-26T03:11:03;26.17;;;11.57;;
42514;SDS011;28144;49.920;18.730;2024-02-26T03:13:29;21.92;;;11.45;;
42514;SDS011;28144;49.920;18.730;2024-02-26T03:15:56;22.25;;;11.82;;
42514;SDS011;28144;49.920;18.730;2024-02-26T03:18:22;23.67;;;10.70;;
42514;SDS011;28144;49.920;18.730;2024-02-26T03:20:48;33.67;;;13.13;;
42514;SDS011;28144;49.920;18.730;2024-02-26T03:23:14;28.33;;;13.70;;
42514;SDS011;28144;49.920;18.730;2024-02-26T03:25:42;35.10;;;13.60;;
42514;SDS011;28144;49.920;18.730;2024-02-26T03:28:11;28.77;;;13.70;;
42514;SDS011;28144;49.920;18.730;2024-02-26T03:33:03;32.27;;;15.33;;
42514;SDS011;28144;49.920;18.730;2024-02-26T03:35:29;36.78;;;16.52;;
42514;SDS011;28144;49.920;18.730;2024-02-26T03:37:55;33.77;;;16.23;;
42514;SDS011;28144;49.920;18.730;2024-02-26T03:40:21;38.63;;;18.23;;
42514;SDS011;28144;49.920;18.730;2024-02-26T03:42:47;47.37;;;28.80;;
42514;SDS011;28144;49.920;18.730;2024-02-26T03:45:12;67.60;;;40.30;;
42514;SDS011;28144;49.920;18.730;2024-02-26T03:47:38;29.33;;;16.70;;
42514;SDS011;28144;49.920;18.730;2024-02-26T03:50:07;24.37;;;14.33;;
42514;SDS011;28144;49.920;18.730;2024-02-26T03:52:33;30.90;;;15.60;;
42514;SDS011;28144;49.920;18.730;2024-02-26T03:54:59;31.98;;;16.95;;
42514;SDS011;28144;49.920;18.730;2024-02-26T03:57:25;33.93;;;18.47;;
42514;SDS011;28144;49.920;18.730;2024-02-26T03:59:51;43.57;;;20.40;;
42514;SDS011;28144;49.920;18.730;2024-02-26T04:02:16;47.37;;;22.17;;
42514;SDS011;28144;49.920;18.730;2024-02-26T04:04:45;38.17;;;20.13;;
42514;SDS011;28144;49.920;18.730;2024-02-26T04:09:38;32.27;;;16.17;;
42514;SDS011;28144;49.920;18.730;2024-02-26T04:12:04;43.13;;;21.23;;
42514;SDS011;28144;49.920;18.730;2024-02-26T04:14:30;46.00;;;21.75;;
42514;SDS011;28144;49.920;18.730;2024-02-26T04:16:56;40.57;;;20.67;;
42514;SDS011;28144;49.920;18.730;2024-02-26T04:19:22;40.77;;;21.07;;
42514;SDS011;28144;49.920;18.730;2024-02-26T04:21:47;47.33;;;23.33;;
42514;SDS011;28144;49.920;18.730;2024-02-26T04:24:13;44.50;;;22.27;;
42514;SDS011;28144;49.920;18.730;2024-02-26T04:26:39;47.80;;;22.93;;
42514;SDS011;28144;49.920;18.730;2024-02-26T04:29:04;42.73;;;22.57;;
42514;SDS011;28144;49.920;18.730;2024-02-26T04:31:30;53.17;;;27.43;;
42514;SDS011;28144;49.920;18.730;2024-02-26T04:33:58;65.53;;;28.33;;
42514;SDS011;28144;49.920;18.730;2024-02-26T04:36:24;66.93;;;27.50;;
42514;SDS011;28144;49.920;18.730;2024-02-26T04:38:51;48.20;;;24.13;;
42514;SDS011;28144;49.920;18.730;2024-02-26T04:41:19;56.73;;;24.83;;
42514;SDS011;28144;49.920;18.730;2024-02-26T04:43:45;48.60;;;23.42;;
42514;SDS011;28144;49.920;18.730;2024-02-26T04:46:11;54.13;;;23.80;;
42514;SDS011;28144;49.920;18.730;2024-02-26T04:48:37;53.17;;;23.03;;
42514;SDS011;28144;49.920;18.730;2024-02-26T04:51:04;47.28;;;19.90;;
42514;SDS011;28144;49.920;18.730;2024-02-26T04:53:30;52.53;;;23.95;;
42514;SDS011;28144;49.920;18.730;2024-02-26T04:55:56;52.42;;;26.63;;
42514;SDS011;28144;49.920;18.730;2024-02-26T04:58:22;56.03;;;26.87;;
42514;SDS011;28144;49.920;18.730;2024-02-26T05:00:47;50.73;;;23.60;;
42514;SDS011;28144;49.920;18.730;2024-02-26T05:03:13;41.03;;;19.10;;
42514;SDS011;28144;49.920;18.730;2024-02-26T05:05:44;43.27;;;19.50;;
42514;SDS011;28144;49.920;18.730;2024-02-26T05:08:10;44.97;;;18.87;;
42514;SDS011;28144;49.920;18.730;2024-02-26T05:10:36;38.03;;;18.47;;
42514;SDS011;28144;49.920;18.730;2024-02-26T05:13:05;43.07;;;20.00;;
42514;SDS011;28144;49.920;18.730;2024-02-26T05:15:31;37.70;;;19.80;;
42514;SDS011;28144;49.920;18.730;2024-02-26T05:17:58;35.95;;;19.15;;
42514;SDS011;28144;49.920;18.730;2024-02-26T05:20:24;42.43;;;21.07;;
42514;SDS011;28144;49.920;18.730;2024-02-26T05:22:50;48.38;;;24.20;;
42514;SDS011;28144;49.920;18.730;2024-02-26T05:25:16;46.40;;;22.73;;
42514;SDS011;28144;49.920;18.730;2024-02-26T05:27:45;51.65;;;23.83;;
42514;SDS011;28144;49.920;18.730;2024-02-26T05:30:11;59.43;;;26.10;;
42514;SDS011;28144;49.920;18.730;2024-02-26T05:32:37;50.83;;;25.73;;
42514;SDS011;28144;49.920;18.730;2024-02-26T05:35:03;52.67;;;25.80;;
42514;SDS011;28144;49.920;18.730;2024-02-26T05:37:29;53.10;;;22.52;;
42514;SDS011;28144;49.920;18.730;2024-02-26T05:39:55;50.40;;;23.73;;
42514;SDS011;28144;49.920;18.730;2024-02-26T05:42:21;58.22;;;23.90;;
42514;SDS011;28144;49.920;18.730;2024-02-26T05:44:47;56.77;;;27.30;;
42514;SDS011;28144;49.920;18.730;2024-02-26T05:47:13;61.93;;;30.07;;
42514;SDS011;28144;49.920;18.730;2024-02-26T05:49:42;50.30;;;26.77;;
42514;SDS011;28144;49.920;18.730;2024-02-26T05:52:08;54.13;;;25.85;;
42514;SDS011;28144;49.920;18.730;2024-02-26T05:54:34;43.43;;;21.13;;
42514;SDS011;28144;49.920;18.730;2024-02-26T05:57:00;54.47;;;25.47;;
42514;SDS011;28144;49.920;18.730;2024-02-26T05:59:26;48.88;;;24.98;;
42514;SDS011;28144;49.920;18.730;2024-02-26T06:01:52;56.10;;;25.53;;
42514;SDS011;28144;49.920;18.730;2024-02-26T06:04:18;50.20;;;25.03;;
42514;SDS011;28144;49.920;18.730;2024-02-26T06:06:44;58.27;;;27.13;;
42514;SDS011;28144;49.920;18.730;2024-02-26T06:09:10;66.07;;;32.33;;
42514;SDS011;28144;49.920;18.730;2024-02-26T06:11:37;58.97;;;28.27;;
42514;SDS011;28144;49.920;18.730;2024-02-26T06:14:03;55.90;;;26.37;;
42514;SDS011;28144;49.920;18.730;2024-02-26T06:16:29;56.90;;;26.83;;
42514;SDS011;28144;49.920;18.730;2024-02-26T06:18:54;59.50;;;28.03;;
42514;SDS011;28144;49.920;18.730;2024-02-26T06:21:20;59.17;;;30.23;;
42514;SDS011;28144;49.920;18.730;2024-02-26T06:23:46;66.20;;;34.57;;
42514;SDS011;28144;49.920;18.730;2024-02-26T06:26:11;74.53;;;31.23;;
42514;SDS011;28144;49.920;18.730;2024-02-26T06:28:37;58.70;;;30.40;;
42514;SDS011;28144;49.920;18.730;2024-02-26T06:31:06;60.10;;;29.13;;
42514;SDS011;28144;49.920;18.730;2024-02-26T06:33:31;54.40;;;24.83;;
42514;SDS011;28144;49.920;18.730;2024-02-26T06:35:58;57.40;;;25.33;;
42514;SDS011;28144;49.920;18.730;2024-02-26T06:38:24;52.58;;;25.75;;
42514;SDS011;28144;49.920;18.730;2024-02-26T06:40:50;56.20;;;27.30;;
42514;SDS011;28144;49.920;18.730;2024-02-26T06:43:15;47.43;;;24.73;;
42514;SDS011;28144;49.920;18.730;2024-02-26T06:45:41;58.63;;;27.83;;
42514;SDS011;28144;49.920;18.730;2024-02-26T06:48:07;56.77;;;27.63;;
42514;SDS011;28144;49.920;18.730;2024-02-26T06:50:33;54.97;;;25.43;;
42514;SDS011;28144;49.920;18.730;2024-02-26T06:52:58;55.80;;;25.13;;
42514;SDS011;28144;49.920;18.730;2024-02-26T06:55:24;46.30;;;22.77;;
42514;SDS011;28144;49.920;18.730;2024-02-26T06:57:50;45.10;;;22.03;;
42514;SDS011;28144;49.920;18.730;2024-02-26T07:00:16;48.17;;;21.47;;
42514;SDS011;28144;49.920;18.730;2024-02-26T07:02:42;39.07;;;20.47;;
42514;SDS011;28144;49.920;18.730;2024-02-26T07:05:08;41.53;;;19.27;;
42514;SDS011;28144;49.920;18.730;2024-02-26T07:07:34;40.13;;;18.30;;
42514;SDS011;28144;49.920;18.730;2024-02-26T07:10:00;38.67;;;18.07;;
42514;SDS011;28144;49.920;18.730;2024-02-26T07:12:29;38.73;;;20.30;;
42514;SDS011;28144;49.920;18.730;2024-02-26T07:14:55;41.00;;;19.43;;
42514;SDS011;28144;49.920;18.730;2024-02-26T07:17:21;41.13;;;20.53;;
42514;SDS011;28144;49.920;18.730;2024-02-26T07:19:47;38.80;;;19.20;;
42514;SDS011;28144;49.920;18.730;2024-02-26T07:22:13;40.38;;;18.35;;
42514;SDS011;28144;49.920;18.730;2024-02-26T07:24:39;46.47;;;19.83;;
42514;SDS011;28144;49.920;18.730;2024-02-26T07:27:05;42.13;;;19.73;;
42514;SDS011;28144;49.920;18.730;2024-02-26T07:29:31;36.73;;;18.83;;
42514;SDS011;28144;49.920;18.730;2024-02-26T07:31:56;39.40;;;18.93;;
42514;SDS011;28144;49.920;18.730;2024-02-26T07:34:23;38.53;;;19.63;;
42514;SDS011;28144;49.920;18.730;2024-02-26T07:36:53;45.60;;;20.03;;
42514;SDS011;28144;49.920;18.730;2024-02-26T07:39:19;38.67;;;20.38;;
42514;SDS011;28144;49.920;18.730;2024-02-26T07:41:44;44.93;;;20.93;;
42514;SDS011;28144;49.920;18.730;2024-02-26T07:44:13;46.30;;;21.30;;
42514;SDS011;28144;49.920;18.730;2024-02-26T07:46:39;42.77;;;22.97;;
42514;SDS011;28144;49.920;18.730;2024-02-26T07:49:05;45.33;;;22.47;;
42514;SDS011;28144;49.920;18.730;2024-02-26T07:51:30;42.93;;;23.23;;
42514;SDS011;28144;49.920;18.730;2024-02-26T07:53:56;48.30;;;24.03;;
42514;SDS011;28144;49.920;18.730;2024-02-26T07:56:22;46.17;;;22.77;;
42514;SDS011;28144;49.920;18.730;2024-02-26T07:58:48;45.03;;;20.80;;
42514;SDS011;28144;49.920;18.730;2024-02-26T08:01:14;52.07;;;21.83;;
42514;SDS011;28144;49.920;18.730;2024-02-26T08:03:40;44.20;;;22.48;;
42514;SDS011;28144;49.920;18.730;2024-02-26T08:06:07;45.57;;;21.43;;
42514;SDS011;28144;49.920;18.730;2024-02-26T08:08:33;48.10;;;22.67;;
42514;SDS011;28144;49.920;18.730;2024-02-26T08:10:59;44.33;;;22.70;;
42514;SDS011;28144;49.920;18.730;2024-02-26T08:13:25;41.45;;;22.77;;
42514;SDS011;28144;49.920;18.730;2024-02-26T08:15:51;50.97;;;24.70;;
42514;SDS011;28144;49.920;18.730;2024-02-26T08:18:18;47.58;;;22.67;;
42514;SDS011;28144;49.920;18.730;2024-02-26T08:20:44;54.00;;;24.08;;
42514;SDS011;28144;49.920;18.730;2024-02-26T08:23:10;48.92;;;24.83;;
42514;SDS011;28144;49.920;18.730;2024-02-26T08:25:36;50.67;;;25.47;;
42514;SDS011;28144;49.920;18.730;2024-02-26T08:28:02;45.63;;;25.13;;
42514;SDS011;28144;49.920;18.730;2024-02-26T08:30:28;47.10;;;25.92;;
42514;SDS011;28144;49.920;18.730;2024-02-26T08:32:54;54.43;;;27.63;;
42514;SDS011;28144;49.920;18.730;2024-02-26T08:35:19;49.57;;;25.30;;
42514;SDS011;28144;49.920;18.730;2024-02-26T08:37:46;46.57;;;24.40;;
42514;SDS011;28144;49.920;18.730;2024-02-26T08:40:12;52.05;;;25.33;;
42514;SDS011;28144;49.920;18.730;2024-02-26T08:42:38;46.88;;;24.48;;
42514;SDS011;28144;49.920;18.730;2024-02-26T08:45:04;41.67;;;23.60;;
42514;SDS011;28144;49.920;18.730;2024-02-26T08:47:30;45.25;;;23.77;;
42514;SDS011;28144;49.920;18.730;2024-02-26T08:49:56;42.20;;;22.70;;
42514;SDS011;28144;49.920;18.730;2024-02-26T08:52:22;41.97;;;21.33;;
42514;SDS011;28144;49.920;18.730;2024-02-26T08:54:48;36.53;;;19.00;;
42514;SDS011;28144;49.920;18.730;2024-02-26T08:57:14;41.30;;;21.63;;
42514;SDS011;28144;49.920;18.730;2024-02-26T08:59:39;45.97;;;21.57;;
42514;SDS011;28144;49.920;18.730;2024-02-26T09:02:05;39.47;;;21.80;;
42514;SDS011;28144;49.920;18.730;2024-02-26T09:04:33;49.17;;;22.30;;
42514;SDS011;28144;49.920;18.730;2024-02-26T09:07:03;40.20;;;19.50;;
42514;SDS011;28144;49.920;18.730;2024-02-26T09:09:31;36.83;;;19.40;;
42514;SDS011;28144;49.920;18.730;2024-02-26T09:12:14;37.13;;;17.40;;
42514;SDS011;28144;49.920;18.730;2024-02-26T09:14:40;43.43;;;19.47;;
42514;SDS011;28144;49.920;18.730;2024-02-26T09:17:08;37.50;;;17.63;;
42514;SDS011;28144;49.920;18.730;2024-02-26T09:19:34;37.43;;;19.80;;
42514;SDS011;28144;49.920;18.730;2024-02-26T09:22:03;40.97;;;21.13;;
42514;SDS011;28144;49.920;18.730;2024-02-26T09:24:29;47.00;;;18.60;;
42514;SDS011;28144;49.920;18.730;2024-02-26T09:26:55;34.25;;;17.58;;
42514;SDS011;28144;49.920;18.730;2024-02-26T09:29:21;31.27;;;16.77;;
42514;SDS011;28144;49.920;18.730;2024-02-26T09:31:47;26.63;;;12.90;;
42514;SDS011;28144;49.920;18.730;2024-02-26T09:34:13;26.00;;;14.63;;
42514;SDS011;28144;49.920;18.730;2024-02-26T09:36:43;23.47;;;11.80;;
42514;SDS011;28144;49.920;18.730;2024-02-26T09:39:08;26.30;;;12.13;;
42514;SDS011;28144;49.920;18.730;2024-02-26T09:41:37;23.43;;;13.03;;
42514;SDS011;28144;49.920;18.730;2024-02-26T09:44:04;25.95;;;14.35;;
42514;SDS011;28144;49.920;18.730;2024-02-26T09:48:56;26.75;;;13.60;;
42514;SDS011;28144;49.920;18.730;2024-02-26T09:51:22;31.77;;;15.50;;
42514;SDS011;28144;49.920;18.730;2024-02-26T09:53:51;32.10;;;14.37;;
42514;SDS011;28144;49.920;18.730;2024-02-26T09:58:44;28.00;;;14.70;;
42514;SDS011;28144;49.920;18.730;2024-02-26T10:01:21;29.07;;;12.00;;
42514;SDS011;28144;49.920;18.730;2024-02-26T10:03:51;24.05;;;11.95;;
42514;SDS011;28144;49.920;18.730;2024-02-26T10:06:20;25.70;;;12.90;;
42514;SDS011;28144;49.920;18.730;2024-02-26T10:08:46;26.43;;;13.33;;
42514;SDS011;28144;49.920;18.730;2024-02-26T10:11:13;26.63;;;13.63;;
42514;SDS011;28144;49.920;18.730;2024-02-26T10:13:40;24.13;;;11.82;;
42514;SDS011;28144;49.920;18.730;2024-02-26T10:16:07;25.33;;;13.23;;
42514;SDS011;28144;49.920;18.730;2024-02-26T10:18:54;25.83;;;12.48;;
42514;SDS011;28144;49.920;18.730;2024-02-26T10:21:20;31.77;;;14.65;;
42514;SDS011;28144;49.920;18.730;2024-02-26T10:23:46;32.85;;;15.82;;
42514;SDS011;28144;49.920;18.730;2024-02-26T10:26:16;31.77;;;17.20;;
42514;SDS011;28144;49.920;18.730;2024-02-26T10:28:42;28.37;;;14.57;;
42514;SDS011;28144;49.920;18.730;2024-02-26T10:31:09;38.33;;;15.47;;
42514;SDS011;28144;49.920;18.730;2024-02-26T10:33:35;32.03;;;15.18;;
42514;SDS011;28144;49.920;18.730;2024-02-26T10:36:02;26.27;;;13.90;;
42514;SDS011;28144;49.920;18.730;2024-02-26T10:38:29;27.47;;;13.67;;
42514;SDS011;28144;49.920;18.730;2024-02-26T10:40:55;32.35;;;16.33;;
42514;SDS011;28144;49.920;18.730;2024-02-26T10:43:21;34.22;;;15.45;;
42514;SDS011;28144;49.920;18.730;2024-02-26T10:45:47;26.17;;;14.90;;
42514;SDS011;28144;49.920;18.730;2024-02-26T10:48:13;29.77;;;13.30;;
42514;SDS011;28144;49.920;18.730;2024-02-26T10:53:07;22.30;;;11.70;;
42514;SDS011;28144;49.920;18.730;2024-02-26T10:55:40;20.37;;;11.87;;
42514;SDS011;28144;49.920;18.730;2024-02-26T10:58:07;25.98;;;12.48;;
42514;SDS011;28144;49.920;18.730;2024-02-26T11:00:34;31.77;;;14.50;;
42514;SDS011;28144;49.920;18.730;2024-02-26T11:03:01;31.33;;;14.43;;
42514;SDS011;28144;49.920;18.730;2024-02-26T11:05:28;27.70;;;13.40;;
42514;SDS011;28144;49.920;18.730;2024-02-26T11:10:26;29.60;;;15.87;;
42514;SDS011;28144;49.920;18.730;2024-02-26T11:12:59;24.80;;;13.02;;
42514;SDS011;28144;49.920;18.730;2024-02-26T11:15:25;22.30;;;10.63;;
42514;SDS011;28144;49.920;18.730;2024-02-26T11:17:53;20.07;;;10.10;;
42514;SDS011;28144;49.920;18.730;2024-02-26T11:20:24;22.07;;;11.80;;
42514;SDS011;28144;49.920;18.730;2024-02-26T11:22:50;27.30;;;11.77;;
42514;SDS011;28144;49.920;18.730;2024-02-26T11:25:19;24.10;;;12.60;;
42514;SDS011;28144;49.920;18.730;2024-02-26T11:27:50;25.27;;;12.10;;
42514;SDS011;28144;49.920;18.730;2024-02-26T11:30:18;26.42;;;14.18;;
42514;SDS011;28144;49.920;18.730;2024-02-26T11:32:45;27.35;;;13.27;;
42514;SDS011;28144;49.920;18.730;2024-02-26T11:35:14;28.27;;;12.38;;
42514;SDS011;28144;49.920;18.730;2024-02-26T11:37:50;27.25;;;12.70;;
42514;SDS011;28144;49.920;18.730;2024-02-26T11:40:26;24.73;;;12.63;;
42514;SDS011;28144;49.920;18.730;2024-02-26T11:42:52;25.20;;;12.90;;
42514;SDS011;28144;49.920;18.730;2024-02-26T11:48:03;28.08;;;11.80;;
42514;SDS011;28144;49.920;18.730;2024-02-26T11:50:32;24.33;;;11.00;;
42514;SDS011;28144;49.920;18.730;2024-02-26T11:56:00;21.35;;;11.32;;
42514;SDS011;28144;49.920;18.730;2024-02-26T11:58:43;22.50;;;12.27;;
42514;SDS011;28144;49.920;18.730;2024-02-26T12:06:53;20.08;;;9.80;;
42514;SDS011;28144;49.920;18.730;2024-02-26T12:12:07;19.77;;;9.90;;
42514;SDS011;28144;49.920;18.730;2024-02-26T12:17:25;16.13;;;8.45;;
42514;SDS011;28144;49.920;18.730;2024-02-26T12:19:51;20.60;;;7.53;;
42514;SDS011;28144;49.920;18.730;2024-02-26T12:22:19;13.65;;;7.32;;
42514;SDS011;28144;49.920;18.730;2024-02-26T12:24:44;12.60;;;7.00;;
42514;SDS011;28144;49.920;18.730;2024-02-26T12:27:10;13.07;;;7.30;;
42514;SDS011;28144;49.920;18.730;2024-02-26T12:29:36;13.47;;;6.47;;
42514;SDS011;28144;49.920;18.730;2024-02-26T12:32:03;15.90;;;7.45;;
42514;SDS011;28144;49.920;18.730;2024-02-26T12:34:29;17.92;;;7.53;;
42514;SDS011;28144;49.920;18.730;2024-02-26T12:36:56;16.25;;;7.97;;
42514;SDS011;28144;49.920;18.730;2024-02-26T12:39:22;19.57;;;8.67;;
42514;SDS011;28144;49.920;18.730;2024-02-26T12:41:48;19.02;;;9.13;;
42514;SDS011;28144;49.920;18.730;2024-02-26T12:44:16;14.85;;;8.25;;
42514;SDS011;28144;49.920;18.730;2024-02-26T12:46:42;17.13;;;7.68;;
42514;SDS011;28144;49.920;18.730;2024-02-26T12:49:08;21.10;;;7.60;;
42514;SDS011;28144;49.920;18.730;2024-02-26T12:51:34;13.85;;;6.75;;
42514;SDS011;28144;49.920;18.730;2024-02-26T12:54:00;16.47;;;7.93;;
42514;SDS011;28144;49.920;18.730;2024-02-26T12:56:27;12.63;;;6.63;;
42514;SDS011;28144;49.920;18.730;2024-02-26T12:58:52;14.75;;;8.10;;
42514;SDS011;28144;49.920;18.730;2024-02-26T13:01:20;13.30;;;8.38;;
42514;SDS011;28144;49.920;18.730;2024-02-26T13:03:48;20.23;;;8.88;;
42514;SDS011;28144;49.920;18.730;2024-02-26T13:06:14;15.73;;;7.85;;
42514;SDS011;28144;49.920;18.730;2024-02-26T13:08:40;19.53;;;8.13;;
42514;SDS011;28144;49.920;18.730;2024-02-26T13:11:06;20.00;;;8.02;;
42514;SDS011;28144;49.920;18.730;2024-02-26T13:13:32;20.60;;;8.97;;
42514;SDS011;28144;49.920;18.730;2024-02-26T13:16:02;21.50;;;9.52;;
42514;SDS011;28144;49.920;18.730;2024-02-26T13:18:29;16.60;;;8.60;;
42514;SDS011;28144;49.920;18.730;2024-02-26T13:21:11;14.75;;;7.05;;
42514;SDS011;28144;49.920;18.730;2024-02-26T13:23:39;16.73;;;7.97;;
42514;SDS011;28144;49.920;18.730;2024-02-26T13:26:05;16.63;;;7.75;;
42514;SDS011;28144;49.920;18.730;2024-02-26T13:28:31;16.88;;;8.73;;
42514;SDS011;28144;49.920;18.730;2024-02-26T13:35:51;15.98;;;8.30;;
42514;SDS011;28144;49.920;18.730;2024-02-26T13:38:17;17.50;;;8.77;;
42514;SDS011;28144;49.920;18.730;2024-02-26T13:40:43;17.42;;;8.50;;
42514;SDS011;28144;49.920;18.730;2024-02-26T13:43:09;21.30;;;9.17;;
42514;SDS011;28144;49.920;18.730;2024-02-26T13:45:35;17.77;;;9.50;;
42514;SDS011;28144;49.920;18.730;2024-02-26T13:48:02;21.38;;;9.27;;
42514;SDS011;28144;49.920;18.730;2024-02-26T13:50:29;18.48;;;9.52;;
42514;SDS011;28144;49.920;18.730;2024-02-26T13:52:55;14.20;;;8.17;;
42514;SDS011;28144;49.920;18.730;2024-02-26T13:57:49;17.58;;;9.35;;
42514;SDS011;28144;49.920;18.730;2024-02-26T14:00:17;17.35;;;9.25;;
42514;SDS011;28144;49.920;18.730;2024-02-26T14:02:43;17.58;;;9.75;;
42514;SDS011;28144;49.920;18.730;2024-02-26T14:05:09;18.63;;;8.00;;
42514;SDS011;28144;49.920;18.730;2024-02-26T14:10:06;13.30;;;6.53;;
42514;SDS011;28144;49.920;18.730;2024-02-26T14:12:35;8.20;;;5.60;;
42514;SDS011;28144;49.920;18.730;2024-02-26T14:15:01;9.75;;;5.55;;
42514;SDS011;28144;49.920;18.730;2024-02-26T14:17:33;11.30;;;5.78;;
42514;SDS011;28144;49.920;18.730;2024-02-26T14:19:59;8.73;;;5.20;;
42514;SDS011;28144;49.920;18.730;2024-02-26T14:22:25;9.30;;;5.50;;
42514;SDS011;28144;49.920;18.730;2024-02-26T14:24:56;8.70;;;5.57;;
42514;SDS011;28144;49.920;18.730;2024-02-26T14:27:22;15.45;;;7.95;;
42514;SDS011;28144;49.920;18.730;2024-02-26T14:29:48;13.00;;;7.25;;
42514;SDS011;28144;49.920;18.730;2024-02-26T14:32:16;8.93;;;5.93;;
42514;SDS011;28144;49.920;18.730;2024-02-26T14:34:43;12.07;;;6.25;;
42514;SDS011;28144;49.920;18.730;2024-02-26T14:37:08;18.23;;;8.27;;
42514;SDS011;28144;49.920;18.730;2024-02-26T14:39:34;9.85;;;5.68;;
42514;SDS011;28144;49.920;18.730;2024-02-26T14:42:00;13.70;;;7.00;;
42514;SDS011;28144;49.920;18.730;2024-02-26T14:44:27;17.17;;;8.18;;
42514;SDS011;28144;49.920;18.730;2024-02-26T14:46:52;25.40;;;9.30;;
42514;SDS011;28144;49.920;18.730;2024-02-26T14:49:18;16.27;;;7.50;;
42514;SDS011;28144;49.920;18.730;2024-02-26T14:51:44;16.60;;;7.27;;
42514;SDS011;28144;49.920;18.730;2024-02-26T14:54:11;11.60;;;6.47;;
42514;SDS011;28144;49.920;18.730;2024-02-26T14:56:37;17.65;;;7.88;;